createdAt,value
2019-04-01T00:01:41.223Z,95153.00
2019-04-01T00:04:48.910Z,95148.28
2019-04-01T00:07:56.529Z,95147.80
2019-04-01T00:11:04.432Z,95149.00
2019-04-01T00:14:11.812Z,95146.09
2019-04-01T00:17:19.504Z,95151.05
2019-04-01T00:20:27.178Z,95155.88
2019-04-01T00:23:34.656Z,95157.33
2019-04-01T00:26:42.050Z,95150.81
2019-04-01T00:29:49.682Z,95146.48
2019-04-01T00:32:57.412Z,95145.43
2019-04-01T00:36:05.498Z,95147.98
2019-04-01T00:39:12.816Z,95136.29
2019-04-01T00:42:28.714Z,95144.62
2019-04-01T00:45:37.872Z,95146.30
2019-04-01T00:48:45.237Z,95135.88
2019-04-01T00:51:53.056Z,95138.09
2019-04-01T00:55:00.451Z,95137.42
2019-04-01T00:58:08.075Z,95140.31
2019-04-01T01:01:15.618Z,95142.42
2019-04-01T01:04:23.422Z,95130.47
2019-04-01T01:07:31.115Z,95132.41
2019-04-01T01:10:38.532Z,95125.41
2019-04-01T01:13:46.233Z,95123.72
2019-04-01T01:16:53.788Z,95124.52
2019-04-01T01:20:01.615Z,95124.84
2019-04-01T01:23:09.375Z,95126.41
2019-04-01T01:26:16.820Z,95128.13
2019-04-01T01:29:24.742Z,95121.89
2019-04-01T01:32:32.298Z,95127.75
2019-04-01T01:35:39.720Z,95117.34
2019-04-01T01:38:47.174Z,95122.89
2019-04-01T01:41:54.796Z,95119.98
2019-04-01T01:45:02.835Z,95123.58
2019-04-01T01:48:10.512Z,95130.77
2019-04-01T01:51:18.204Z,95129.27
2019-04-01T01:54:25.811Z,95127.52
2019-04-01T01:57:33.434Z,95125.52
2019-04-01T02:00:41.111Z,95128.95
2019-04-01T02:03:48.473Z,95130.48
2019-04-01T02:06:56.095Z,95125.96
2019-04-01T02:10:03.930Z,95124.34
2019-04-01T02:13:11.388Z,95129.45
2019-04-01T02:16:18.817Z,95127.87
2019-04-01T02:19:26.097Z,95126.07
2019-04-01T02:22:33.500Z,95136.25
2019-04-01T02:25:40.881Z,95132.90
2019-04-01T02:28:48.256Z,95125.69
2019-04-01T02:31:56.038Z,95120.68
2019-04-01T02:35:03.640Z,95119.93
2019-04-01T02:38:11.822Z,95123.83
2019-04-01T02:41:19.588Z,95124.78
2019-04-01T02:44:27.280Z,95125.42
2019-04-01T02:47:35.086Z,95123.42
2019-04-01T02:53:57.738Z,95119.71
2019-04-01T02:57:04.915Z,95128.95
2019-04-01T03:00:12.796Z,95120.17
2019-04-01T03:03:20.192Z,95120.78
2019-04-01T03:06:27.489Z,95112.59
2019-04-01T03:09:34.794Z,95119.08
2019-04-01T03:12:42.081Z,95113.69
2019-04-01T03:15:49.256Z,95117.88
2019-04-01T03:18:56.827Z,95118.58
2019-04-01T03:22:04.150Z,95108.49
2019-04-01T03:25:11.859Z,95111.67
2019-04-01T03:28:19.028Z,95110.10
2019-04-01T03:31:26.475Z,95104.38
2019-04-01T03:34:34.230Z,95108.27
2019-04-01T03:37:41.533Z,95103.00
2019-04-01T03:40:48.814Z,95103.13
2019-04-01T03:43:56.306Z,95106.33
2019-04-01T03:47:03.813Z,95107.84
2019-04-01T03:50:11.490Z,95107.91
2019-04-01T03:53:19.039Z,95107.58
2019-04-01T03:56:26.301Z,95102.73
2019-04-01T03:59:34.591Z,95107.87
2019-04-01T04:02:42.299Z,95105.55
2019-04-01T04:05:50.078Z,95106.14
2019-04-01T04:09:01.633Z,95108.29
2019-04-01T04:12:07.386Z,95108.03
2019-04-01T04:15:14.874Z,95110.11
2019-04-01T04:18:22.615Z,95103.30
2019-04-01T04:21:30.607Z,95104.48
2019-04-01T04:24:38.085Z,95109.97
2019-04-01T04:27:45.737Z,95110.73
2019-04-01T04:30:53.271Z,95111.25
2019-04-01T04:34:04.695Z,95119.92
2019-04-01T04:37:12.162Z,95114.36
2019-04-01T04:40:19.752Z,95109.88
2019-04-01T04:43:26.960Z,95112.20
2019-04-01T04:46:34.582Z,95117.13
2019-04-01T04:49:42.052Z,95120.38
2019-04-01T04:52:49.345Z,95121.63
2019-04-01T04:55:56.706Z,95122.50
2019-04-01T04:59:04.379Z,95122.53
2019-04-01T05:02:11.866Z,95116.52
2019-04-01T05:05:19.735Z,95118.84
2019-04-01T05:08:27.411Z,95117.27
2019-04-01T05:11:34.863Z,95114.29
2019-04-01T05:14:42.268Z,95115.03
2019-04-01T05:17:49.736Z,95119.62
2019-04-01T05:20:59.066Z,95120.73
2019-04-01T05:24:07.582Z,95113.51
2019-04-01T05:27:20.797Z,95117.36
2019-04-01T05:30:32.596Z,95114.49
2019-04-01T05:33:54.867Z,95116.12
2019-04-01T05:36:55.578Z,95121.30
2019-04-01T05:40:04.739Z,95124.35
2019-04-01T05:43:12.230Z,95129.08
2019-04-01T05:46:19.994Z,95126.80
2019-04-01T05:49:27.721Z,95124.33
2019-04-01T05:52:35.427Z,95127.72
2019-04-01T05:55:43.281Z,95126.34
2019-04-01T05:58:50.817Z,95131.93
2019-04-01T06:01:58.211Z,95137.38
2019-04-01T06:05:06.442Z,95121.09
2019-04-01T06:08:13.930Z,95114.88
2019-04-01T06:11:21.378Z,95123.70
2019-04-01T06:14:29.310Z,95111.34
2019-04-01T06:17:37.117Z,95115.34
2019-04-01T06:20:45.535Z,95118.58
2019-04-01T06:23:53.123Z,95112.07
2019-04-01T06:27:00.612Z,95117.31
2019-04-01T06:30:08.546Z,95115.98
2019-04-01T06:33:16.007Z,95123.84
2019-04-01T06:36:23.421Z,95124.05
2019-04-01T06:39:30.806Z,95127.88
2019-04-01T06:42:38.628Z,95123.23
2019-04-01T06:45:46.175Z,95127.19
2019-04-01T06:48:53.714Z,95127.02
2019-04-01T06:52:01.502Z,95129.34
2019-04-01T06:55:08.996Z,95134.14
2019-04-01T06:58:17.323Z,95131.01
2019-04-01T07:01:27.284Z,95127.66
2019-04-01T07:04:36.344Z,95128.80
2019-04-01T07:07:45.148Z,95131.77
2019-04-01T07:10:55.358Z,95128.55
2019-04-01T07:14:04.208Z,95130.88
2019-04-01T07:17:15.071Z,95134.92
2019-04-01T07:20:24.916Z,95124.67
2019-04-01T07:23:32.620Z,95126.28
2019-04-01T07:26:40.145Z,95128.43
2019-04-01T07:29:47.737Z,95122.56
2019-04-01T07:32:55.763Z,95120.50
2019-04-01T07:36:03.143Z,95125.16
2019-04-01T07:39:10.563Z,95126.10
2019-04-01T07:42:18.661Z,95126.33
2019-04-01T07:45:26.606Z,95128.38
2019-04-01T07:48:34.498Z,95129.62
2019-04-01T07:51:42.531Z,95128.94
2019-04-01T07:54:50.099Z,95132.30
2019-04-01T07:57:59.872Z,95127.93
2019-04-01T08:01:07.811Z,95133.47
2019-04-01T08:04:30.484Z,95133.16
2019-04-01T08:07:39.782Z,95136.81
2019-04-01T08:10:47.388Z,95132.08
2019-04-01T08:13:55.435Z,95137.97
2019-04-01T08:17:02.945Z,95137.64
2019-04-01T08:20:10.799Z,95138.73
2019-04-01T08:23:18.541Z,95143.01
2019-04-01T08:26:26.498Z,95138.73
2019-04-01T08:29:34.028Z,95135.91
2019-04-01T08:32:41.590Z,95140.81
2019-04-01T08:35:49.255Z,95141.68
2019-04-01T08:38:56.818Z,95146.13
2019-04-01T08:42:04.330Z,95145.41
2019-04-01T08:45:11.821Z,95156.00
2019-04-01T08:48:19.585Z,95147.56
2019-04-01T08:51:27.023Z,95141.44
2019-04-01T08:54:34.603Z,95130.34
2019-04-01T08:57:42.075Z,95131.53
2019-04-01T09:00:49.918Z,95140.12
2019-04-01T09:03:58.063Z,95138.67
2019-04-01T09:07:05.490Z,95132.55
2019-04-01T09:10:13.932Z,95136.15
2019-04-01T09:13:22.448Z,95129.58
2019-04-01T09:16:31.257Z,95131.69
2019-04-01T09:19:38.800Z,95136.66
2019-04-01T09:22:46.714Z,95113.95
2019-04-01T09:25:54.193Z,95114.23
2019-04-01T09:29:01.720Z,95118.41
2019-04-01T09:32:09.511Z,95115.08
2019-04-01T09:35:17.114Z,95116.34
2019-04-01T09:38:25.936Z,95116.45
2019-04-01T09:41:33.660Z,95109.57
2019-04-01T09:44:41.636Z,95112.08
2019-04-01T09:47:49.128Z,95114.19
2019-04-01T09:50:56.544Z,95107.16
2019-04-01T09:54:04.299Z,95114.18
2019-04-01T09:57:17.920Z,95109.69
2019-04-01T10:00:22.033Z,95102.52
2019-04-01T10:03:29.497Z,95104.84
2019-04-01T10:06:37.020Z,95106.05
2019-04-01T10:09:44.379Z,95100.67
2019-04-01T10:12:52.134Z,95101.38
2019-04-01T10:15:59.690Z,95097.48
2019-04-01T10:19:07.532Z,95094.11
2019-04-01T10:22:15.125Z,95099.34
2019-04-01T10:25:22.814Z,95090.45
2019-04-01T10:28:32.130Z,95078.93
2019-04-01T10:31:39.607Z,95080.00
2019-04-01T10:34:47.203Z,95079.83
2019-04-01T10:37:54.688Z,95074.02
2019-04-01T10:41:02.181Z,95073.66
2019-04-01T10:44:09.995Z,95074.58
2019-04-01T10:47:17.650Z,95068.88
2019-04-01T10:50:25.469Z,95065.89
2019-04-01T10:53:32.821Z,95068.67
2019-04-01T10:56:40.109Z,95071.27
2019-04-01T10:59:47.522Z,95074.44
2019-04-01T11:02:54.833Z,95067.61
2019-04-01T11:06:02.729Z,95067.33
2019-04-01T11:09:10.954Z,95060.95
2019-04-01T11:12:18.699Z,95056.05
2019-04-01T11:15:26.322Z,95053.59
2019-04-01T11:18:34.103Z,95049.44
2019-04-01T11:21:41.894Z,95043.16
2019-04-01T11:24:49.667Z,95043.80
2019-04-01T11:27:56.989Z,95044.74
2019-04-01T11:31:04.386Z,95046.73
2019-04-01T11:34:12.855Z,95044.72
2019-04-01T11:37:20.097Z,95039.35
2019-04-01T11:40:27.684Z,95038.91
2019-04-01T11:43:35.742Z,95037.61
2019-04-01T11:46:43.642Z,95032.24
2019-04-01T11:49:51.256Z,95030.85
2019-04-01T11:52:58.972Z,95026.84
2019-04-01T11:56:06.373Z,95020.52
2019-04-01T11:59:13.722Z,95015.19
2019-04-01T12:02:21.597Z,95022.83
2019-04-01T12:05:29.916Z,95021.20
2019-04-01T12:08:37.195Z,95006.73
2019-04-01T12:11:44.553Z,95006.88
2019-04-01T12:14:52.046Z,95002.03
2019-04-01T12:17:59.468Z,94991.20
2019-04-01T12:21:08.263Z,94990.53
2019-04-01T12:24:16.017Z,94992.48
2019-04-01T12:27:23.822Z,94989.28
2019-04-01T12:30:31.330Z,94983.18
2019-04-01T12:33:38.878Z,94983.13
2019-04-01T12:36:46.102Z,94980.41
2019-04-01T12:39:53.819Z,94971.12
2019-04-01T12:43:01.811Z,94975.23
2019-04-01T12:46:09.590Z,94968.89
2019-04-01T12:49:17.309Z,94972.39
2019-04-01T12:52:24.589Z,94970.84
2019-04-01T12:55:31.854Z,94969.11
2019-04-01T12:58:39.395Z,94967.61
2019-04-01T13:01:47.001Z,94960.31
2019-04-01T13:04:54.698Z,94954.45
2019-04-01T13:08:02.071Z,94957.78
2019-04-01T13:11:10.147Z,94959.11
2019-04-01T13:14:17.752Z,94956.22
2019-04-01T13:17:25.013Z,94955.23
2019-04-01T13:20:38.152Z,94947.17
2019-04-01T13:23:41.709Z,94946.18
2019-04-01T13:26:50.893Z,94941.13
2019-04-01T13:29:58.659Z,94943.25
2019-04-01T13:33:06.275Z,94931.83
2019-04-01T13:36:13.877Z,94928.75
2019-04-01T13:39:21.771Z,94926.98
2019-04-01T13:42:29.666Z,94920.06
2019-04-01T13:45:37.164Z,94924.49
2019-04-01T13:48:56.973Z,94915.95
2019-04-01T13:51:53.991Z,94916.84
2019-04-01T13:55:02.039Z,94910.47
2019-04-01T13:58:10.503Z,94913.46
2019-04-01T14:01:18.236Z,94901.41
2019-04-01T14:04:27.335Z,94893.44
2019-04-01T14:07:35.107Z,94894.23
2019-04-01T14:10:42.608Z,94890.92
2019-04-01T14:13:50.610Z,94888.84
2019-04-01T14:16:58.175Z,94887.41
2019-04-01T14:20:06.687Z,94883.47
2019-04-01T14:23:14.699Z,94882.20
2019-04-01T14:26:22.206Z,94885.84
2019-04-01T14:29:29.623Z,94883.05
2019-04-01T14:32:37.406Z,94882.95
2019-04-01T14:35:45.300Z,94886.61
2019-04-01T14:38:52.675Z,94877.59
2019-04-01T14:41:59.934Z,94876.57
2019-04-01T14:45:10.380Z,94867.31
2019-04-01T14:48:18.013Z,94871.23
2019-04-01T14:54:41.219Z,94861.51
2019-04-01T14:57:48.661Z,94856.05
2019-04-01T15:00:56.159Z,94857.71
2019-04-01T15:04:05.289Z,94851.83
2019-04-01T15:07:14.054Z,94851.94
2019-04-01T15:10:23.028Z,94851.52
2019-04-01T15:13:30.230Z,94848.14
2019-04-01T15:16:37.899Z,94840.68
2019-04-01T15:19:48.524Z,94834.66
2019-04-01T15:22:56.024Z,94828.58
2019-04-01T15:26:04.065Z,94834.66
2019-04-01T15:29:11.580Z,94835.83
2019-04-01T15:32:19.453Z,94828.26
2019-04-01T15:35:27.146Z,94828.22
2019-04-01T15:38:34.995Z,94828.81
2019-04-01T15:41:43.241Z,94828.56
2019-04-01T15:44:51.055Z,94824.59
2019-04-01T15:47:59.601Z,94823.89
2019-04-01T15:51:07.937Z,94828.81
2019-04-01T15:54:16.210Z,94820.70
2019-04-01T15:57:24.714Z,94811.90
2019-04-01T16:00:32.793Z,94816.22
2019-04-01T16:03:41.315Z,94813.75
2019-04-01T16:06:48.940Z,94821.95
2019-04-01T16:09:56.525Z,94815.72
2019-04-01T16:13:04.202Z,94817.92
2019-04-01T16:16:14.275Z,94818.92
2019-04-01T16:19:20.681Z,94819.81
2019-04-01T16:22:28.021Z,94821.48
2019-04-01T16:25:37.599Z,94825.16
2019-04-01T16:28:45.379Z,94826.80
2019-04-01T16:31:55.425Z,94825.25
2019-04-01T16:35:03.952Z,94822.81
2019-04-01T16:38:11.784Z,94820.75
2019-04-01T16:41:19.781Z,94817.52
2019-04-01T16:44:27.379Z,94820.53
2019-04-01T16:47:34.877Z,94818.87
2019-04-01T16:50:42.401Z,94817.28
2019-04-01T16:53:49.911Z,94813.88
2019-04-01T16:56:57.367Z,94822.23
2019-04-01T17:00:08.378Z,94819.13
2019-04-01T17:03:16.447Z,94816.11
2019-04-01T17:06:23.962Z,94815.02
2019-04-01T17:09:31.754Z,94821.17
2019-04-01T17:12:39.744Z,94819.98
2019-04-01T17:15:48.898Z,94816.93
2019-04-01T17:18:57.808Z,94813.13
2019-04-01T17:22:05.907Z,94816.59
2019-04-01T17:25:14.446Z,94820.91
2019-04-01T17:28:22.012Z,94819.88
2019-04-01T17:31:29.885Z,94825.87
2019-04-01T17:34:37.687Z,94812.87
2019-04-01T17:37:46.001Z,94820.95
2019-04-01T17:40:53.759Z,94822.55
2019-04-01T17:44:01.712Z,94818.86
2019-04-01T17:47:09.414Z,94814.28
2019-04-01T17:50:17.012Z,94816.23
2019-04-01T17:53:25.008Z,94822.07
2019-04-01T17:56:33.074Z,94825.44
2019-04-01T17:59:41.593Z,94826.53
2019-04-01T18:02:50.245Z,94829.23
2019-04-01T18:05:58.223Z,94835.23
2019-04-01T18:09:07.009Z,94835.00
2019-04-01T18:12:15.980Z,94838.30
2019-04-01T18:15:26.263Z,94844.70
2019-04-01T18:18:36.096Z,94843.31
2019-04-01T18:21:47.111Z,94843.48
2019-04-01T18:24:55.700Z,94841.46
2019-04-01T18:28:05.415Z,94843.72
2019-04-01T18:31:13.731Z,94841.91
2019-04-01T18:34:23.218Z,94842.66
2019-04-01T18:37:31.732Z,94844.05
2019-04-01T18:40:39.662Z,94853.83
2019-04-01T18:43:48.690Z,94849.67
2019-04-01T18:46:57.957Z,94852.89
2019-04-01T18:50:08.082Z,94847.09
2019-04-01T18:53:15.513Z,94857.73
2019-04-01T18:56:23.511Z,94856.45
2019-04-01T18:59:34.577Z,94858.88
2019-04-01T19:02:42.574Z,94856.68
2019-04-01T19:05:50.570Z,94857.14
2019-04-01T19:09:08.745Z,94855.06
2019-04-01T19:12:10.925Z,94851.98
2019-04-01T19:15:19.219Z,94854.31
2019-04-01T19:18:27.446Z,94853.67
2019-04-01T19:21:36.984Z,94861.86
2019-04-01T19:25:23.226Z,94863.20
2019-04-01T19:28:35.947Z,94868.95
2019-04-01T19:32:14.581Z,94868.95
2019-04-01T19:35:27.272Z,94868.19
2019-04-01T19:38:43.758Z,94869.75
2019-04-01T19:41:51.954Z,94867.89
2019-04-01T19:45:04.616Z,94871.10
2019-04-01T19:48:15.963Z,94865.81
2019-04-01T19:51:24.180Z,94866.50
2019-04-01T19:54:43.282Z,94870.08
2019-04-01T19:57:53.122Z,94864.01
2019-04-01T20:01:05.718Z,94864.54
2019-04-01T20:04:14.823Z,94871.00
2019-04-01T20:07:26.481Z,94865.55
2019-04-01T20:10:37.806Z,94869.52
2019-04-01T20:13:46.390Z,94863.02
2019-04-01T20:17:09.991Z,94866.20
2019-04-01T20:20:14.721Z,94869.27
2019-04-01T20:23:23.434Z,94866.78
2019-04-01T20:26:34.559Z,94870.08
2019-04-01T20:29:48.279Z,94865.55
2019-04-01T20:32:59.156Z,94857.92
2019-04-01T20:36:09.389Z,94860.80
2019-04-01T20:39:19.786Z,94868.33
2019-04-01T20:42:34.247Z,94866.97
2019-04-01T20:45:42.860Z,94868.78
2019-04-01T20:48:50.894Z,94869.75
2019-04-01T20:51:58.522Z,94871.46
2019-04-01T20:55:06.909Z,94865.22
2019-04-01T20:58:14.685Z,94867.16
2019-04-01T21:01:22.850Z,94861.30
2019-04-01T21:04:30.715Z,94864.34
2019-04-01T21:07:38.143Z,94852.12
2019-04-01T21:10:45.615Z,94850.16
2019-04-01T21:13:53.451Z,94850.05
2019-04-01T21:17:06.203Z,94848.38
2019-04-01T21:20:14.889Z,94852.48
2019-04-01T21:23:22.212Z,94848.13
2019-04-01T21:26:29.677Z,94846.98
2019-04-01T21:29:37.324Z,94848.30
2019-04-01T21:32:45.323Z,94851.70
2019-04-01T21:35:53.185Z,94847.97
2019-04-01T21:39:01.289Z,94849.23
2019-04-01T21:42:09.257Z,94842.45
2019-04-01T21:45:16.906Z,94848.70
2019-04-01T21:48:24.621Z,94841.75
2019-04-01T21:51:33.166Z,94838.30
2019-04-01T21:54:41.182Z,94837.93
2019-04-01T21:57:48.737Z,94834.44
2019-04-01T22:00:57.052Z,94833.13
2019-04-01T22:04:04.622Z,94824.25
2019-04-01T22:07:12.215Z,94826.59
2019-04-01T22:10:19.824Z,94824.16
2019-04-01T22:13:27.507Z,94820.01
2019-04-01T22:16:35.559Z,94816.15
2019-04-01T22:19:43.254Z,94816.92
2019-04-01T22:22:50.656Z,94809.61
2019-04-01T22:25:58.915Z,94811.75
2019-04-01T22:29:07.087Z,94810.19
2019-04-01T22:32:14.473Z,94809.81
2019-04-01T22:35:22.182Z,94806.11
2019-04-01T22:38:29.655Z,94806.31
2019-04-01T22:41:37.051Z,94804.92
2019-04-01T22:44:44.695Z,94797.22
2019-04-01T22:47:52.788Z,94793.79
2019-04-01T22:51:00.036Z,94790.03
2019-04-01T22:54:07.589Z,94789.08
2019-04-01T22:57:15.472Z,94794.44
2019-04-01T23:00:23.050Z,94782.64
2019-04-01T23:03:31.085Z,94783.16
2019-04-01T23:06:38.934Z,94786.92
2019-04-01T23:09:46.355Z,94783.66
2019-04-01T23:12:54.386Z,94773.66
2019-04-01T23:16:01.992Z,94766.34
2019-04-01T23:19:09.375Z,94762.88
2019-04-01T23:22:16.761Z,94765.86
2019-04-01T23:25:25.244Z,94765.45
2019-04-01T23:28:33.541Z,94759.47
2019-04-01T23:31:40.998Z,94756.91
2019-04-01T23:34:48.384Z,94757.83
2019-04-01T23:37:56.499Z,94750.95
2019-04-01T23:41:04.052Z,94750.53
2019-04-01T23:44:11.699Z,94750.88
2019-04-01T23:47:19.234Z,94744.11
2019-04-01T23:50:26.421Z,94754.97
2019-04-01T23:53:34.406Z,94748.48
2019-04-01T23:56:42.093Z,94756.89
2019-04-01T23:59:49.809Z,94745.38
